Time;durP1;ratioP1;P1;durP2;ratioP2;P2;SDS_P1;SDS_P2;PMS_P1;PMS_P2;Temp;Humidity;BMP_temperature;BMP_pressure;BME280_temperature;BME280_humidity;BME280_pressure;Samples;Min_cycle;Max_cycle;Signal;HPM_P1;HPM_P2
2020/12/26 00:01:51;;;;;;;9.70;7.60;;;5.70;66.10;;;;;;4862279;29;20461;-76
2020/12/26 00:04:18;;;;;;;7.23;6.43;;;5.60;65.90;;;;;;4863033;29;20465;-76
2020/12/26 00:06:44;;;;;;;8.43;7.30;;;5.60;66.00;;;;;;4864172;29;20484;-75
2020/12/26 00:09:11;;;;;;;8.60;7.20;;;5.60;66.10;;;;;;4879178;29;20496;-75
2020/12/26 00:11:38;;;;;;;7.57;6.50;;;5.60;66.20;;;;;;4862273;29;20445;-75
2020/12/26 00:14:04;;;;;;;8.00;6.20;;;5.60;66.20;;;;;;4879051;29;20456;-76
2020/12/26 00:16:31;;;;;;;7.13;6.40;;;5.70;65.90;;;;;;4864692;29;20474;-77
2020/12/26 00:18:57;;;;;;;8.20;6.77;;;5.70;65.60;;;;;;4877957;29;20984;-76
2020/12/26 00:21:24;;;;;;;7.77;6.90;;;5.80;65.80;;;;;;4878652;29;20501;-76
2020/12/26 00:23:50;;;;;;;8.53;7.63;;;5.70;65.70;;;;;;4880484;29;20832;-75
2020/12/26 00:26:17;;;;;;;10.33;6.50;;;5.70;66.00;;;;;;4877913;29;20598;-75
2020/12/26 00:28:45;;;;;;;12.87;8.13;;;5.60;66.10;;;;;;4880237;29;20475;-75
2020/12/26 00:31:13;;;;;;;10.90;7.30;;;5.60;66.20;;;;;;4866981;29;20543;-75
2020/12/26 00:33:40;;;;;;;9.47;6.80;;;5.60;66.20;;;;;;4861692;29;20540;-76
2020/12/26 00:36:06;;;;;;;10.13;7.73;;;5.50;66.10;;;;;;4862565;29;20465;-75
2020/12/26 00:38:33;;;;;;;9.67;7.67;;;5.50;66.20;;;;;;4868817;29;20465;-75
2020/12/26 00:41:00;;;;;;;12.90;8.67;;;5.50;66.20;;;;;;4871060;29;20528;-76
2020/12/26 00:43:27;;;;;;;16.70;13.10;;;5.40;66.30;;;;;;4867514;29;20532;-76
2020/12/26 00:45:54;;;;;;;13.27;9.37;;;5.40;66.40;;;;;;4878348;29;20965;-75
2020/12/26 00:48:20;;;;;;;10.93;6.40;;;5.40;66.60;;;;;;4879812;29;20464;-75
2020/12/26 00:50:47;;;;;;;9.10;7.10;;;5.40;66.70;;;;;;4874244;29;20461;-75
2020/12/26 00:53:13;;;;;;;9.87;7.90;;;5.40;66.80;;;;;;4879203;29;20498;-75
2020/12/26 00:55:40;;;;;;;12.07;7.50;;;5.30;66.70;;;;;;4877083;29;20456;-75
2020/12/26 00:58:06;;;;;;;8.17;7.03;;;5.30;66.70;;;;;;4878203;29;20471;-75
2020/12/26 01:00:33;;;;;;;7.50;6.70;;;5.30;66.70;;;;;;4877685;29;20590;-75
2020/12/26 01:03:00;;;;;;;11.00;6.10;;;5.30;66.60;;;;;;4861031;29;20517;-75
2020/12/26 01:05:27;;;;;;;8.20;7.17;;;5.30;66.80;;;;;;4861161;29;20468;-75
2020/12/26 01:07:53;;;;;;;13.07;7.87;;;5.30;66.90;;;;;;4864767;29;20973;-75
2020/12/26 01:10:20;;;;;;;9.87;6.77;;;5.20;66.90;;;;;;4875197;29;20497;-75
2020/12/26 01:12:46;;;;;;;6.80;6.10;;;5.20;67.00;;;;;;4863220;29;20463;-75
2020/12/26 01:15:13;;;;;;;12.60;7.40;;;5.20;67.10;;;;;;4873612;29;20502;-75
2020/12/26 01:17:39;;;;;;;9.17;7.10;;;5.20;67.20;;;;;;4875967;29;20872;-75
2020/12/26 01:20:07;;;;;;;7.17;6.47;;;5.20;67.30;;;;;;4879366;29;20555;-75
2020/12/26 01:22:34;;;;;;;11.73;6.37;;;5.20;67.30;;;;;;4878538;29;20546;-74
2020/12/26 01:25:01;;;;;;;8.50;6.43;;;5.20;67.10;;;;;;4879180;29;20452;-74
2020/12/26 01:27:28;;;;;;;9.20;8.23;;;5.20;67.10;;;;;;4868481;29;21096;-75
2020/12/26 01:29:54;;;;;;;8.50;6.60;;;5.20;67.10;;;;;;4860867;29;20473;-75
2020/12/26 01:32:24;;;;;;;7.80;6.33;;;5.10;67.00;;;;;;4861515;29;20552;-75
2020/12/26 01:34:50;;;;;;;9.50;6.90;;;5.10;66.80;;;;;;4860615;29;20538;-75
2020/12/26 01:37:18;;;;;;;9.13;7.10;;;5.10;66.70;;;;;;4867875;29;20467;-75
2020/12/26 01:39:44;;;;;;;8.10;6.70;;;5.10;66.80;;;;;;4878937;29;20488;-75
2020/12/26 01:42:11;;;;;;;6.87;6.17;;;5.10;66.90;;;;;;4872600;29;20547;-75
2020/12/26 01:44:37;;;;;;;7.70;6.87;;;5.00;66.80;;;;;;4859018;29;20456;-75
2020/12/26 01:47:04;;;;;;;11.27;7.43;;;5.00;66.90;;;;;;4864439;29;20465;-75
2020/12/26 01:49:30;;;;;;;8.73;7.57;;;5.00;67.00;;;;;;4878358;29;20481;-75
2020/12/26 01:51:57;;;;;;;8.17;7.20;;;5.00;67.10;;;;;;4877958;29;20471;-76
2020/12/26 01:54:26;;;;;;;14.30;8.00;;;4.90;67.10;;;;;;4878591;29;20467;-76
2020/12/26 01:56:52;;;;;;;8.40;7.00;;;4.90;67.50;;;;;;4877933;29;20460;-75
2020/12/26 01:59:19;;;;;;;8.53;6.63;;;4.90;67.30;;;;;;4860275;29;20482;-77
2020/12/26 02:01:46;;;;;;;11.50;7.30;;;4.90;67.40;;;;;;4877180;29;20463;-75
2020/12/26 02:04:13;;;;;;;7.63;6.80;;;4.90;67.50;;;;;;4862004;29;20470;-75
2020/12/26 02:06:44;;;;;;;8.80;7.17;;;5.00;67.60;;;;;;4860302;29;20990;-75
2020/12/26 02:09:12;;;;;;;10.00;6.60;;;5.00;67.60;;;;;;4870875;29;20479;-75
2020/12/26 02:11:39;;;;;;;7.67;6.50;;;5.10;67.70;;;;;;4869305;29;20514;-75
2020/12/26 02:14:06;;;;;;;7.63;6.60;;;5.20;67.70;;;;;;4875206;29;20467;-75
2020/12/26 02:16:43;;;;;;;11.73;6.80;;;5.20;67.10;;;;;;4882462;29;20453;-76
2020/12/26 02:19:10;;;;;;;9.30;7.17;;;5.30;67.10;;;;;;4880851;29;20527;-75
2020/12/26 02:21:37;;;;;;;7.07;6.37;;;5.30;66.80;;;;;;4882424;29;20515;-75
2020/12/26 02:24:04;;;;;;;8.13;6.67;;;5.30;67.30;;;;;;4881885;29;20527;-75
2020/12/26 02:26:30;;;;;;;15.47;8.37;;;5.40;66.50;;;;;;4880517;29;20875;-75
2020/12/26 02:28:57;;;;;;;14.30;7.90;;;5.40;66.50;;;;;;4871103;29;20953;-76
2020/12/26 02:31:24;;;;;;;10.77;8.77;;;5.40;66.60;;;;;;4881900;29;20471;-75
2020/12/26 02:33:51;;;;;;;13.47;7.77;;;5.30;66.20;;;;;;4869374;29;20486;-75
2020/12/26 02:36:17;;;;;;;10.13;7.10;;;5.20;65.80;;;;;;4882179;29;20463;-75
2020/12/26 02:38:44;;;;;;;7.53;6.20;;;5.10;65.60;;;;;;4879413;29;20466;-76
2020/12/26 02:41:12;;;;;;;9.47;8.27;;;5.00;66.00;;;;;;4881326;29;20498;-75
2020/12/26 02:43:38;;;;;;;9.17;7.23;;;4.80;66.20;;;;;;4880652;29;20459;-76
2020/12/26 02:46:05;;;;;;;20.33;7.73;;;4.70;66.80;;;;;;4882079;29;20975;-75
2020/12/26 02:48:32;;;;;;;8.40;7.53;;;4.70;67.20;;;;;;4866685;29;20471;-75
2020/12/26 02:50:59;;;;;;;11.47;8.43;;;4.70;68.20;;;;;;4876976;29;20503;-76
2020/12/26 02:53:25;;;;;;;10.20;8.90;;;4.70;67.70;;;;;;4868801;29;20495;-75
2020/12/26 02:55:52;;;;;;;10.07;7.53;;;4.70;67.80;;;;;;4863387;29;20463;-75
2020/12/26 02:58:20;;;;;;;11.87;9.17;;;4.70;67.90;;;;;;4875205;29;20461;-76
2020/12/26 03:00:48;;;;;;;11.50;6.97;;;4.70;67.90;;;;;;4881633;29;20501;-75
2020/12/26 03:03:15;;;;;;;11.20;8.00;;;4.70;67.70;;;;;;4868585;29;20462;-75
2020/12/26 03:05:41;;;;;;;12.10;8.30;;;4.70;67.80;;;;;;4863086;29;20463;-75
2020/12/26 03:08:08;;;;;;;17.97;8.43;;;4.70;67.90;;;;;;4872444;29;20971;-76
2020/12/26 03:10:34;;;;;;;12.53;8.37;;;4.80;68.10;;;;;;4875877;29;20490;-75
2020/12/26 03:13:01;;;;;;;11.97;8.23;;;4.80;68.00;;;;;;4881093;29;20457;-75
2020/12/26 03:15:28;;;;;;;8.50;7.63;;;4.80;67.90;;;;;;4874327;29;20964;-75
2020/12/26 03:17:55;;;;;;;9.33;8.40;;;4.80;67.80;;;;;;4867701;29;20466;-75
2020/12/26 03:20:21;;;;;;;14.83;8.43;;;4.80;67.90;;;;;;4879604;29;20486;-75
2020/12/26 03:22:48;;;;;;;10.00;7.77;;;4.80;67.80;;;;;;4880823;29;20475;-76
2020/12/26 03:25:15;;;;;;;12.83;7.43;;;4.80;67.80;;;;;;4881588;29;20522;-77
2020/12/26 03:27:41;;;;;;;10.73;8.70;;;4.80;67.80;;;;;;4878943;29;20459;-76
2020/12/26 03:30:08;;;;;;;10.67;7.80;;;4.70;67.70;;;;;;4864406;29;20467;-76
2020/12/26 03:32:36;;;;;;;14.90;8.83;;;4.70;67.80;;;;;;4880268;29;20462;-76
2020/12/26 03:35:03;;;;;;;9.90;7.50;;;4.70;67.80;;;;;;4862574;29;20455;-76
2020/12/26 03:37:30;;;;;;;10.53;7.40;;;4.70;67.80;;;;;;4862751;29;20822;-77
2020/12/26 03:39:56;;;;;;;11.23;9.93;;;4.60;67.80;;;;;;4880517;29;20576;-76
2020/12/26 03:42:23;;;;;;;13.40;8.03;;;4.60;67.80;;;;;;4880733;29;20814;-76
2020/12/26 03:44:49;;;;;;;11.87;8.80;;;4.60;68.00;;;;;;4864072;29;20462;-76
2020/12/26 03:47:16;;;;;;;11.00;8.70;;;4.60;68.00;;;;;;4862283;29;20972;-76
2020/12/26 03:49:43;;;;;;;13.47;9.43;;;4.70;68.10;;;;;;4877223;29;20460;-77
2020/12/26 03:52:10;;;;;;;12.63;7.90;;;4.60;67.90;;;;;;4880037;29;20490;-76
2020/12/26 03:54:36;;;;;;;13.83;8.23;;;4.70;68.10;;;;;;4880175;29;21019;-77
2020/12/26 03:57:03;;;;;;;9.30;7.37;;;4.70;68.30;;;;;;4879141;29;20853;-76
2020/12/26 03:59:29;;;;;;;10.60;7.70;;;4.70;68.30;;;;;;4868447;29;20460;-76
2020/12/26 04:01:56;;;;;;;10.17;7.20;;;4.80;68.20;;;;;;4861775;29;20467;-76
2020/12/26 04:04:22;;;;;;;11.23;8.17;;;4.80;68.10;;;;;;4872367;29;20549;-76
2020/12/26 04:06:50;;;;;;;12.60;8.20;;;4.90;67.70;;;;;;4880640;29;20466;-77
2020/12/26 04:09:16;;;;;;;11.03;8.10;;;5.00;67.70;;;;;;4871119;29;20469;-76
2020/12/26 04:11:43;;;;;;;9.27;7.37;;;5.00;67.60;;;;;;4864636;29;20976;-76
2020/12/26 04:14:09;;;;;;;8.87;7.67;;;5.00;67.70;;;;;;4874798;29;20459;-76
2020/12/26 04:16:36;;;;;;;10.23;7.67;;;5.00;67.70;;;;;;4861789;29;20467;-76
2020/12/26 04:19:03;;;;;;;12.00;7.97;;;5.00;67.50;;;;;;4862708;29;20457;-76
2020/12/26 04:21:29;;;;;;;8.03;6.73;;;5.00;67.50;;;;;;4866284;29;20519;-76
2020/12/26 04:23:57;;;;;;;14.23;8.63;;;5.10;67.40;;;;;;4877938;29;21281;-76
2020/12/26 04:26:23;;;;;;;10.77;7.10;;;5.10;67.10;;;;;;4880136;29;20454;-76
2020/12/26 04:28:50;;;;;;;14.50;8.30;;;5.10;67.00;;;;;;4865562;29;20953;-76
2020/12/26 04:31:17;;;;;;;12.63;7.20;;;5.20;66.80;;;;;;4879560;29;20460;-76
2020/12/26 04:33:44;;;;;;;11.17;8.20;;;5.20;66.60;;;;;;4876410;29;20484;-76
2020/12/26 04:36:10;;;;;;;11.23;7.53;;;5.20;66.60;;;;;;4877910;29;20463;-76
2020/12/26 04:38:37;;;;;;;11.97;7.37;;;5.20;66.80;;;;;;4868186;29;20476;-76
2020/12/26 04:41:05;;;;;;;7.83;7.03;;;5.20;66.70;;;;;;4876113;29;20499;-76
2020/12/26 04:43:32;;;;;;;9.00;7.40;;;5.30;66.80;;;;;;4877241;29;20989;-76
2020/12/26 04:45:59;;;;;;;9.90;6.90;;;5.30;66.60;;;;;;4879968;29;20466;-77
2020/12/26 04:48:27;;;;;;;10.13;6.97;;;5.30;66.30;;;;;;4879082;29;20473;-77
2020/12/26 04:51:03;;;;;;;10.90;7.10;;;5.30;66.50;;;;;;4877407;29;20463;-76
2020/12/26 04:53:33;;;;;;;11.83;8.37;;;5.20;66.60;;;;;;4879127;29;20991;-75
2020/12/26 04:56:01;;;;;;;10.73;7.90;;;5.20;66.60;;;;;;4879836;29;20466;-76
2020/12/26 04:58:31;;;;;;;12.07;7.63;;;5.20;66.70;;;;;;4878195;29;21046;-76
2020/12/26 05:00:58;;;;;;;19.40;7.67;;;5.20;66.70;;;;;;4866403;29;20502;-76
2020/12/26 05:03:27;;;;;;;9.30;6.80;;;5.20;66.60;;;;;;4874469;29;20827;-76
2020/12/26 05:06:03;;;;;;;8.00;6.97;;;5.20;66.60;;;;;;4879197;29;20534;-76
2020/12/26 05:08:29;;;;;;;11.77;8.20;;;5.20;67.30;;;;;;4878828;29;20545;-76
2020/12/26 05:10:56;;;;;;;13.97;8.30;;;5.20;66.80;;;;;;4879282;29;20835;-76
2020/12/26 05:13:23;;;;;;;11.50;7.40;;;5.20;66.90;;;;;;4876679;29;20497;-76
2020/12/26 05:15:51;;;;;;;11.80;6.80;;;5.20;66.90;;;;;;4873403;29;20963;-76
2020/12/26 05:18:17;;;;;;;11.37;7.70;;;5.20;67.00;;;;;;4860157;29;20825;-76
2020/12/26 05:20:44;;;;;;;11.43;7.70;;;5.30;66.80;;;;;;4866748;29;20495;-76
2020/12/26 05:23:13;;;;;;;10.03;7.73;;;5.40;66.90;;;;;;4874217;29;20461;-76
2020/12/26 05:25:40;;;;;;;11.37;8.13;;;5.40;67.20;;;;;;4874353;29;20511;-75
2020/12/26 05:28:10;;;;;;;12.30;8.10;;;5.40;66.30;;;;;;4868704;29;20458;-75
2020/12/26 05:30:37;;;;;;;12.37;9.10;;;5.40;66.10;;;;;;4871996;29;20588;-75
2020/12/26 05:33:05;;;;;;;10.60;7.80;;;5.40;66.00;;;;;;4861399;29;20454;-74
2020/12/26 05:35:36;;;;;;;11.50;7.70;;;5.50;66.10;;;;;;4864576;29;21051;-75
2020/12/26 05:38:14;;;;;;;11.60;8.60;;;5.50;66.00;;;;;;4872065;29;20517;-75
2020/12/26 05:40:49;;;;;;;11.60;7.80;;;5.50;66.20;;;;;;4864976;29;20573;-76
2020/12/26 05:43:17;;;;;;;9.87;7.70;;;5.50;66.30;;;;;;4870678;29;21313;-76
2020/12/26 05:45:44;;;;;;;9.70;7.63;;;5.50;66.40;;;;;;4876237;29;20469;-78
2020/12/26 05:48:14;;;;;;;11.67;7.37;;;5.50;66.50;;;;;;4875201;29;20466;-76
2020/12/26 05:50:41;;;;;;;13.67;8.70;;;5.40;66.40;;;;;;4877997;29;20461;-76
2020/12/26 05:53:08;;;;;;;11.80;9.73;;;5.40;66.40;;;;;;4878630;29;20498;-76
2020/12/26 05:55:42;;;;;;;15.03;7.93;;;5.30;66.40;;;;;;4878321;29;20830;-76
2020/12/26 05:58:09;;;;;;;12.63;8.97;;;5.20;66.60;;;;;;4877192;29;20453;-76
2020/12/26 06:00:37;;;;;;;14.30;8.30;;;5.20;66.20;;;;;;4878116;29;20514;-76
2020/12/26 06:03:24;;;;;;;12.90;8.70;;;5.20;66.20;;;;;;4886952;29;20482;-76
2020/12/26 06:05:53;;;;;;;14.77;8.90;;;5.20;66.80;;;;;;4868816;29;20461;-77
2020/12/26 06:08:20;;;;;;;11.10;7.30;;;5.10;66.60;;;;;;4865588;29;20463;-77
2020/12/26 06:10:52;;;;;;;12.33;10.13;;;5.10;66.50;;;;;;4866205;29;20553;-77
2020/12/26 06:13:20;;;;;;;11.30;9.10;;;5.10;66.50;;;;;;4872227;29;20490;-77
2020/12/26 06:15:51;;;;;;;10.73;7.60;;;5.00;66.60;;;;;;4866057;29;20827;-77
2020/12/26 06:18:19;;;;;;;11.80;7.90;;;5.00;66.70;;;;;;4872650;29;20490;-76
2020/12/26 06:20:47;;;;;;;10.97;8.33;;;4.90;67.00;;;;;;4871337;29;20994;-76
2020/12/26 06:23:18;;;;;;;11.67;8.20;;;4.90;67.30;;;;;;4877411;29;20960;-77
2020/12/26 06:25:46;;;;;;;11.00;8.20;;;4.80;67.50;;;;;;4874998;29;20964;-77
2020/12/26 06:28:27;;;;;;;9.40;7.67;;;4.80;67.60;;;;;;4878193;29;20458;-76
2020/12/26 06:30:55;;;;;;;11.17;8.67;;;4.70;67.70;;;;;;4875062;29;20478;-76
2020/12/26 06:33:26;;;;;;;13.20;9.03;;;4.60;67.50;;;;;;4875833;29;20469;-77
2020/12/26 06:35:56;;;;;;;12.87;8.20;;;4.60;67.70;;;;;;4872696;29;20463;-77
2020/12/26 06:38:26;;;;;;;16.90;8.30;;;4.60;67.90;;;;;;4877000;29;20464;-77
2020/12/26 06:40:58;;;;;;;11.10;7.70;;;4.60;68.10;;;;;;4870584;29;20529;-76
2020/12/26 06:43:44;;;;;;;18.27;9.80;;;4.50;68.00;;;;;;4866273;29;20978;-77
2020/12/26 06:46:41;;;;;;;17.13;9.53;;;4.60;68.20;;;;;;4875377;29;20468;-77
2020/12/26 06:49:26;;;;;;;14.50;9.57;;;4.50;67.90;;;;;;4878052;29;20461;-77
2020/12/26 06:51:55;;;;;;;14.90;9.73;;;4.40;68.20;;;;;;4865584;29;20497;-76
2020/12/26 06:54:39;;;;;;;16.87;10.63;;;4.40;68.50;;;;;;4866717;29;20456;-76
2020/12/26 06:57:05;;;;;;;12.57;10.23;;;4.40;68.70;;;;;;4864828;29;20537;-77
2020/12/26 06:59:33;;;;;;;12.40;9.57;;;4.40;68.70;;;;;;4865329;29;20471;-77
2020/12/26 07:02:09;;;;;;;12.67;8.37;;;4.50;68.80;;;;;;4869378;29;21036;-76
2020/12/26 07:04:41;;;;;;;11.47;8.80;;;4.50;68.60;;;;;;4872661;29;20474;-77
2020/12/26 07:07:11;;;;;;;12.30;7.80;;;4.50;68.60;;;;;;4871276;29;20554;-77
2020/12/26 07:09:46;;;;;;;19.87;10.53;;;4.50;68.50;;;;;;4864749;29;20462;-77
2020/12/26 07:12:14;;;;;;;15.67;10.23;;;4.60;68.50;;;;;;4866784;29;20831;-76
2020/12/26 07:14:42;;;;;;;14.80;8.70;;;4.60;68.20;;;;;;4871752;29;20467;-76
2020/12/26 07:17:25;;;;;;;12.27;9.33;;;4.60;68.20;;;;;;4868025;29;20574;-76
2020/12/26 07:19:52;;;;;;;12.33;8.77;;;4.70;68.10;;;;;;4879742;29;20911;-76
2020/12/26 07:22:23;;;;;;;12.07;8.20;;;4.70;68.20;;;;;;4872831;29;20462;-76
2020/12/26 07:24:51;;;;;;;15.07;9.00;;;4.70;68.30;;;;;;4877349;29;21024;-76
2020/12/26 07:27:29;;;;;;;13.30;9.13;;;4.70;68.30;;;;;;4878088;29;20465;-76
2020/12/26 07:30:07;;;;;;;16.03;8.93;;;4.70;68.40;;;;;;4872115;29;20450;-75
2020/12/26 07:32:41;;;;;;;15.53;10.27;;;4.80;68.40;;;;;;4868631;29;20525;-76
2020/12/26 07:35:13;;;;;;;11.63;9.50;;;4.80;68.20;;;;;;4869130;29;21029;-76
2020/12/26 07:37:41;;;;;;;12.67;9.30;;;4.80;68.10;;;;;;4864136;29;20472;-76
2020/12/26 07:40:15;;;;;;;12.93;9.73;;;4.90;67.40;;;;;;4867970;29;20459;-76
2020/12/26 07:42:43;;;;;;;12.70;9.07;;;4.90;67.20;;;;;;4862371;29;20514;-76
2020/12/26 07:45:09;;;;;;;14.97;9.07;;;4.90;67.00;;;;;;4877118;29;20456;-76
2020/12/26 07:47:41;;;;;;;12.50;8.90;;;4.90;67.00;;;;;;4880542;29;20983;-76
2020/12/26 07:50:07;;;;;;;12.63;10.20;;;4.90;66.90;;;;;;4878121;29;20550;-76
2020/12/26 07:52:34;;;;;;;13.00;8.80;;;5.00;67.10;;;;;;4880222;29;20546;-76
2020/12/26 07:55:03;;;;;;;9.80;8.50;;;5.00;66.90;;;;;;4875868;29;20468;-76
2020/12/26 07:57:29;;;;;;;11.67;8.73;;;5.00;66.80;;;;;;4865688;29;20970;-76
2020/12/26 07:59:56;;;;;;;10.70;8.40;;;5.10;66.90;;;;;;4869359;29;20512;-76
2020/12/26 08:02:23;;;;;;;14.60;9.60;;;5.10;66.90;;;;;;4862603;29;20473;-76
2020/12/26 08:04:50;;;;;;;14.50;8.63;;;5.20;67.00;;;;;;4877860;29;20464;-76
2020/12/26 08:07:18;;;;;;;12.30;9.33;;;5.20;66.90;;;;;;4880229;29;20494;-76
2020/12/26 08:09:51;;;;;;;13.13;10.03;;;5.20;66.80;;;;;;4880310;29;20813;-76
2020/12/26 08:12:19;;;;;;;17.03;9.33;;;5.30;66.90;;;;;;4864931;29;20458;-77
2020/12/26 08:14:56;;;;;;;13.03;9.93;;;5.30;66.70;;;;;;4872819;29;20463;-78
2020/12/26 08:17:23;;;;;;;11.10;8.87;;;5.30;66.40;;;;;;4873021;29;20966;-77
2020/12/26 08:19:57;;;;;;;16.57;9.33;;;5.40;66.20;;;;;;4874887;29;20458;-77
2020/12/26 08:22:24;;;;;;;14.60;9.10;;;5.40;66.30;;;;;;4876437;29;20467;-78
2020/12/26 08:25:02;;;;;;;13.63;9.23;;;5.40;66.10;;;;;;4878349;29;21012;-76
2020/12/26 08:27:30;;;;;;;10.60;8.40;;;5.40;66.00;;;;;;4879709;29;20469;-75
2020/12/26 08:30:00;;;;;;;13.90;8.77;;;5.30;65.70;;;;;;4879996;29;20952;-75
2020/12/26 08:32:28;;;;;;;10.70;8.07;;;5.30;65.70;;;;;;4875002;29;20468;-75
2020/12/26 08:35:02;;;;;;;10.70;7.83;;;5.40;65.90;;;;;;4867933;29;20456;-75
2020/12/26 08:37:31;;;;;;;9.90;7.03;;;5.40;66.00;;;;;;4861247;29;21022;-75
2020/12/26 08:39:59;;;;;;;12.00;8.27;;;5.40;65.90;;;;;;4876507;29;20888;-76
2020/12/26 08:42:28;;;;;;;10.80;7.97;;;5.50;65.80;;;;;;4872235;29;20796;-76
2020/12/26 08:44:57;;;;;;;9.00;8.10;;;5.50;65.30;;;;;;4875523;29;20888;-76
2020/12/26 08:47:29;;;;;;;12.00;7.93;;;5.50;65.40;;;;;;4877568;29;20455;-76
2020/12/26 08:49:56;;;;;;;8.47;7.47;;;5.50;65.30;;;;;;4875539;29;20537;-76
2020/12/26 08:52:26;;;;;;;9.30;8.20;;;5.60;65.20;;;;;;4876920;29;20527;-76
2020/12/26 08:55:03;;;;;;;14.80;8.40;;;5.60;65.10;;;;;;4876192;29;20483;-76
2020/12/26 08:57:30;;;;;;;12.00;9.00;;;5.60;64.80;;;;;;4880578;29;20467;-76
2020/12/26 09:00:15;;;;;;;12.30;8.33;;;5.70;64.90;;;;;;4898414;29;20467;-76
2020/12/26 09:02:46;;;;;;;11.80;8.50;;;5.70;64.90;;;;;;4868102;29;20534;-75
2020/12/26 09:05:24;;;;;;;9.50;8.43;;;5.70;64.50;;;;;;4879384;29;20467;-76
2020/12/26 09:08:01;;;;;;;10.43;9.20;;;5.80;64.40;;;;;;4878721;29;20482;-76
2020/12/26 09:10:28;;;;;;;15.47;10.10;;;5.80;64.30;;;;;;4871655;29;20461;-76
2020/12/26 09:13:06;;;;;;;11.07;8.20;;;5.90;64.10;;;;;;4866037;29;20805;-76
2020/12/26 09:15:53;;;;;;;11.20;8.80;;;6.00;63.90;;;;;;4876074;29;20463;-76
2020/12/26 09:18:21;;;;;;;8.67;7.47;;;6.10;63.70;;;;;;4860905;29;20480;-76
2020/12/26 09:20:51;;;;;;;10.37;9.37;;;6.10;63.60;;;;;;4869508;29;20844;-76
2020/12/26 09:23:19;;;;;;;10.37;7.57;;;6.20;63.30;;;;;;4867673;29;21045;-76
2020/12/26 09:25:46;;;;;;;9.23;6.90;;;6.30;63.10;;;;;;4861295;29;20467;-76
2020/12/26 09:28:12;;;;;;;10.33;7.20;;;6.30;62.70;;;;;;4864832;29;20466;-76
2020/12/26 09:30:39;;;;;;;15.23;7.47;;;6.40;62.90;;;;;;4869286;29;20537;-76
2020/12/26 09:33:06;;;;;;;14.27;7.70;;;6.50;62.40;;;;;;4877444;29;20467;-76
2020/12/26 09:35:34;;;;;;;12.13;8.43;;;6.60;62.30;;;;;;4872046;29;20465;-76
2020/12/26 09:38:01;;;;;;;9.57;7.13;;;6.60;62.10;;;;;;4863971;29;20512;-76
2020/12/26 09:40:32;;;;;;;12.33;7.17;;;6.60;61.90;;;;;;4861167;29;20488;-77
2020/12/26 09:42:59;;;;;;;6.93;6.07;;;6.70;61.80;;;;;;4864314;29;20458;-77
2020/12/26 09:45:26;;;;;;;9.13;7.10;;;6.70;62.00;;;;;;4876892;29;20873;-76
2020/12/26 09:47:56;;;;;;;10.07;7.53;;;6.70;61.80;;;;;;4876158;29;20547;-76
2020/12/26 09:50:24;;;;;;;10.27;7.60;;;6.80;61.60;;;;;;4868851;29;20449;-76
2020/12/26 09:52:50;;;;;;;8.03;6.67;;;6.80;61.60;;;;;;4878184;29;20899;-78
2020/12/26 09:55:17;;;;;;;7.33;6.40;;;6.90;61.60;;;;;;4875324;29;20465;-77
2020/12/26 09:57:43;;;;;;;7.53;6.43;;;7.00;61.10;;;;;;4876230;29;20452;-78
2020/12/26 10:00:11;;;;;;;6.27;5.67;;;7.10;61.20;;;;;;4875774;29;20460;-76
2020/12/26 10:02:38;;;;;;;7.27;6.57;;;7.00;60.90;;;;;;4872479;29;20541;-77
2020/12/26 10:05:05;;;;;;;5.97;5.30;;;7.10;60.60;;;;;;4862763;29;20455;-76
2020/12/26 10:07:33;;;;;;;11.70;6.17;;;7.10;60.40;;;;;;4868979;29;20555;-77
2020/12/26 10:10:01;;;;;;;6.20;5.33;;;7.20;60.40;;;;;;4870850;29;20459;-77
2020/12/26 10:12:27;;;;;;;7.10;4.80;;;7.20;59.40;;;;;;4859970;29;20979;-77
2020/12/26 10:14:54;;;;;;;6.43;5.83;;;7.20;59.50;;;;;;4864477;29;20456;-77
2020/12/26 10:17:21;;;;;;;5.90;4.60;;;7.20;59.40;;;;;;4874117;29;20479;-76
2020/12/26 10:19:47;;;;;;;6.20;4.63;;;7.30;59.50;;;;;;4876650;29;20492;-76
2020/12/26 10:22:14;;;;;;;5.30;4.17;;;7.30;59.40;;;;;;4873370;29;21092;-76
2020/12/26 10:24:41;;;;;;;5.07;4.57;;;7.30;58.90;;;;;;4877543;29;20470;-76
2020/12/26 10:27:08;;;;;;;7.50;5.47;;;7.30;58.70;;;;;;4878471;29;20482;-76
2020/12/26 10:29:35;;;;;;;7.03;5.23;;;7.30;58.40;;;;;;4880217;29;20484;-76
2020/12/26 10:32:03;;;;;;;5.87;5.20;;;7.30;58.10;;;;;;4882131;29;20960;-76
2020/12/26 10:34:30;;;;;;;6.73;5.90;;;7.20;58.10;;;;;;4881835;29;20471;-76
2020/12/26 10:36:56;;;;;;;7.40;4.87;;;7.20;58.40;;;;;;4882086;29;20455;-76
2020/12/26 10:39:23;;;;;;;5.67;5.17;;;7.30;58.40;;;;;;4880263;29;20547;-76
2020/12/26 10:41:50;;;;;;;4.43;4.03;;;7.30;58.10;;;;;;4881798;29;20992;-76
2020/12/26 10:44:17;;;;;;;7.67;5.27;;;7.30;57.90;;;;;;4882085;29;20458;-77
2020/12/26 10:46:43;;;;;;;7.20;5.83;;;7.30;58.10;;;;;;4881980;29;20958;-76
2020/12/26 10:49:10;;;;;;;7.33;5.20;;;7.40;58.30;;;;;;4867851;29;20854;-76
2020/12/26 10:51:37;;;;;;;9.50;5.40;;;7.50;57.80;;;;;;4880566;29;20458;-76
2020/12/26 10:54:03;;;;;;;9.30;5.50;;;7.60;57.40;;;;;;4873010;29;20984;-76
2020/12/26 10:56:30;;;;;;;9.53;5.40;;;7.70;57.20;;;;;;4862998;29;20469;-76
2020/12/26 10:58:57;;;;;;;6.67;6.07;;;7.90;57.00;;;;;;4863018;29;20470;-76
2020/12/26 11:01:31;;;;;;;4.77;4.37;;;8.00;56.30;;;;;;4863056;29;20495;-76
2020/12/26 11:03:57;;;;;;;8.57;4.23;;;8.10;56.30;;;;;;4863260;29;20464;-76
2020/12/26 11:06:24;;;;;;;5.50;4.67;;;8.20;55.90;;;;;;4872845;29;20464;-75
2020/12/26 11:08:50;;;;;;;4.80;4.40;;;8.30;55.50;;;;;;4881674;29;20837;-76
2020/12/26 11:11:18;;;;;;;8.30;5.23;;;8.30;55.00;;;;;;4869853;29;20458;-77
2020/12/26 11:13:44;;;;;;;4.97;4.47;;;8.40;54.80;;;;;;4870007;29;20458;-77
2020/12/26 11:16:16;;;;;;;5.10;3.87;;;8.50;54.70;;;;;;4880726;29;20976;-76
2020/12/26 11:18:44;;;;;;;6.37;5.27;;;8.70;54.10;;;;;;4874234;29;20950;-76
2020/12/26 11:21:14;;;;;;;5.53;4.40;;;8.80;53.50;;;;;;4865043;29;20512;-76
2020/12/26 11:23:41;;;;;;;4.90;4.30;;;9.10;52.90;;;;;;4881530;29;20565;-76
2020/12/26 11:26:07;;;;;;;5.17;4.20;;;9.20;52.70;;;;;;4881513;29;20458;-76
2020/12/26 11:28:35;;;;;;;4.80;4.40;;;9.40;52.40;;;;;;4881482;29;20455;-76
2020/12/26 11:31:01;;;;;;;4.10;3.80;;;10.00;51.00;;;;;;4881319;29;20465;-76
2020/12/26 11:33:28;;;;;;;4.43;4.13;;;10.60;49.80;;;;;;4879856;29;20481;-76
2020/12/26 11:35:55;;;;;;;5.30;4.53;;;12.10;48.00;;;;;;4881360;29;20468;-77
2020/12/26 11:38:21;;;;;;;4.93;4.53;;;13.80;45.70;;;;;;4881150;29;20472;-76
2020/12/26 11:40:48;;;;;;;6.53;4.83;;;14.20;41.50;;;;;;4881023;29;20930;-76
2020/12/26 11:43:15;;;;;;;4.40;4.00;;;13.40;41.20;;;;;;4881293;29;20464;-76
2020/12/26 11:45:41;;;;;;;5.63;5.03;;;12.30;42.50;;;;;;4880928;29;20457;-78
2020/12/26 11:48:08;;;;;;;5.47;4.20;;;11.30;44.20;;;;;;4881062;29;20451;-76
2020/12/26 11:50:35;;;;;;;5.93;4.20;;;10.70;45.90;;;;;;4877591;29;20469;-75
2020/12/26 11:53:02;;;;;;;10.73;5.30;;;10.20;47.00;;;;;;4879953;29;20495;-75
2020/12/26 11:55:28;;;;;;;5.77;4.37;;;9.80;48.70;;;;;;4880821;29;20462;-76
2020/12/26 11:57:54;;;;;;;5.63;5.00;;;9.60;49.60;;;;;;4879339;29;20551;-76
2020/12/26 12:00:21;;;;;;;6.43;4.60;;;9.40;50.30;;;;;;4880605;29;20475;-76
2020/12/26 12:02:49;;;;;;;7.50;5.50;;;9.30;50.80;;;;;;4880783;29;20484;-76
2020/12/26 12:05:16;;;;;;;6.30;5.70;;;9.20;50.90;;;;;;4880477;29;20463;-75
2020/12/26 12:07:43;;;;;;;5.43;4.93;;;9.20;51.20;;;;;;4880948;29;20473;-76
2020/12/26 12:10:10;;;;;;;5.40;4.90;;;9.10;51.30;;;;;;4870598;29;20467;-75
2020/12/26 12:12:36;;;;;;;5.67;5.10;;;9.10;51.40;;;;;;4861978;29;20473;-76
2020/12/26 12:15:03;;;;;;;8.53;5.80;;;9.10;51.80;;;;;;4869963;29;20463;-76
2020/12/26 12:17:29;;;;;;;6.07;5.27;;;9.10;51.70;;;;;;4880704;29;20494;-76
2020/12/26 12:19:56;;;;;;;6.43;5.20;;;9.10;51.70;;;;;;4862254;29;20459;-76
2020/12/26 12:22:22;;;;;;;6.27;5.67;;;9.10;51.90;;;;;;4873384;29;20562;-76
2020/12/26 12:24:50;;;;;;;6.33;5.23;;;9.10;52.40;;;;;;4878039;29;20479;-76
2020/12/26 12:27:16;;;;;;;6.43;5.83;;;9.00;52.70;;;;;;4880384;29;20952;-76
2020/12/26 12:29:43;;;;;;;8.87;5.33;;;9.00;52.90;;;;;;4863373;29;20568;-76
2020/12/26 12:32:14;;;;;;;4.63;4.10;;;9.00;52.80;;;;;;4873898;29;20829;-76
2020/12/26 12:34:40;;;;;;;5.77;4.70;;;8.90;51.80;;;;;;4869481;29;20463;-76
2020/12/26 12:37:08;;;;;;;5.40;4.90;;;8.80;51.60;;;;;;4868296;29;20476;-74
2020/12/26 12:39:35;;;;;;;5.70;5.23;;;8.60;51.70;;;;;;4876919;29;20545;-77
2020/12/26 12:42:03;;;;;;;6.33;4.47;;;8.40;52.70;;;;;;4886255;29;20894;-76
2020/12/26 12:44:30;;;;;;;6.73;5.67;;;8.20;52.70;;;;;;4898473;29;20466;-77
2020/12/26 12:46:56;;;;;;;5.10;4.60;;;8.20;53.00;;;;;;4881986;29;20464;-76
2020/12/26 12:49:23;;;;;;;7.00;5.13;;;8.20;52.70;;;;;;4877658;29;20464;-76
2020/12/26 12:51:49;;;;;;;4.40;4.00;;;8.20;52.60;;;;;;4876734;29;20963;-77
2020/12/26 12:54:17;;;;;;;5.90;5.30;;;8.20;52.70;;;;;;4879582;29;20485;-77
2020/12/26 12:56:44;;;;;;;4.80;4.40;;;8.20;52.70;;;;;;4879208;29;20859;-75